sensor_id;sensor_type;location;lat;lon;timestamp;temperature;humidity
2625;DHT22;1322;53.256;10.386;2023-02-28T00:00:21;1.70;99.90
2625;DHT22;1322;53.256;10.386;2023-02-28T00:02:47;1.60;99.90
2625;DHT22;1322;53.256;10.386;2023-02-28T00:05:16;1.60;99.90
2625;DHT22;1322;53.256;10.386;2023-02-28T00:07:41;1.60;99.90
2625;DHT22;1322;53.256;10.386;2023-02-28T00:10:09;1.60;99.90
2625;DHT22;1322;53.256;10.386;2023-02-28T00:12:36;1.60;99.90
2625;DHT22;1322;53.256;10.386;2023-02-28T00:15:05;1.60;99.90
2625;DHT22;1322;53.256;10.386;2023-02-28T00:17:30;1.60;99.90
2625;DHT22;1322;53.256;10.386;2023-02-28T00:19:56;1.50;99.90
2625;DHT22;1322;53.256;10.386;2023-02-28T00:22:22;1.50;99.90
2625;DHT22;1322;53.256;10.386;2023-02-28T00:24:47;1.50;99.90
2625;DHT22;1322;53.256;10.386;2023-02-28T00:27:14;1.50;99.90
2625;DHT22;1322;53.256;10.386;2023-02-28T00:29:40;1.50;99.90
2625;DHT22;1322;53.256;10.386;2023-02-28T00:32:06;1.40;99.90
2625;DHT22;1322;53.256;10.386;2023-02-28T00:34:31;1.40;99.90
2625;DHT22;1322;53.256;10.386;2023-02-28T00:37:06;1.40;99.90
2625;DHT22;1322;53.256;10.386;2023-02-28T00:39:34;1.40;99.90
2625;DHT22;1322;53.256;10.386;2023-02-28T00:42:00;1.40;99.90
2625;DHT22;1322;53.256;10.386;2023-02-28T00:44:26;1.40;99.90
2625;DHT22;1322;53.256;10.386;2023-02-28T00:46:51;1.50;99.90
2625;DHT22;1322;53.256;10.386;2023-02-28T00:49:19;1.50;99.90
2625;DHT22;1322;53.256;10.386;2023-02-28T00:51:45;1.50;99.90
2625;DHT22;1322;53.256;10.386;2023-02-28T00:54:11;1.40;99.90
2625;DHT22;1322;53.256;10.386;2023-02-28T00:56:37;1.40;99.90
2625;DHT22;1322;53.256;10.386;2023-02-28T00:59:02;1.40;99.90
2625;DHT22;1322;53.256;10.386;2023-02-28T01:01:28;1.40;99.90
2625;DHT22;1322;53.256;10.386;2023-02-28T01:03:54;1.40;99.90
2625;DHT22;1322;53.256;10.386;2023-02-28T01:06:19;1.50;99.90
2625;DHT22;1322;53.256;10.386;2023-02-28T01:08:45;1.50;99.90
2625;DHT22;1322;53.256;10.386;2023-02-28T01:11:14;1.50;99.90
2625;DHT22;1322;53.256;10.386;2023-02-28T01:13:41;1.60;99.90
2625;DHT22;1322;53.256;10.386;2023-02-28T01:16:07;1.60;99.90
2625;DHT22;1322;53.256;10.386;2023-02-28T01:18:32;1.60;99.90
2625;DHT22;1322;53.256;10.386;2023-02-28T01:21:02;1.60;99.90
2625;DHT22;1322;53.256;10.386;2023-02-28T01:23:28;1.60;99.90
2625;DHT22;1322;53.256;10.386;2023-02-28T01:25:53;1.60;99.90
2625;DHT22;1322;53.256;10.386;2023-02-28T01:28:19;1.50;99.90
2625;DHT22;1322;53.256;10.386;2023-02-28T01:30:49;1.60;99.90
2625;DHT22;1322;53.256;10.386;2023-02-28T01:33:15;1.60;99.90
2625;DHT22;1322;53.256;10.386;2023-02-28T01:35:40;1.60;99.90
2625;DHT22;1322;53.256;10.386;2023-02-28T01:38:06;1.50;99.90
2625;DHT22;1322;53.256;10.386;2023-02-28T01:40:32;1.50;99.90
2625;DHT22;1322;53.256;10.386;2023-02-28T01:42:58;1.40;99.90
2625;DHT22;1322;53.256;10.386;2023-02-28T01:47:58;1.40;99.90
2625;DHT22;1322;53.256;10.386;2023-02-28T01:50:28;1.30;99.90
2625;DHT22;1322;53.256;10.386;2023-02-28T01:52:57;1.30;99.90
2625;DHT22;1322;53.256;10.386;2023-02-28T01:55:25;1.20;99.90
2625;DHT22;1322;53.256;10.386;2023-02-28T01:57:57;1.10;99.90
2625;DHT22;1322;53.256;10.386;2023-02-28T02:00:25;1.10;99.90
2625;DHT22;1322;53.256;10.386;2023-02-28T02:02:55;1.10;99.90
2625;DHT22;1322;53.256;10.386;2023-02-28T02:05:28;1.10;99.90
2625;DHT22;1322;53.256;10.386;2023-02-28T02:07:58;1.10;99.90
2625;DHT22;1322;53.256;10.386;2023-02-28T02:18:52;0.90;99.90
2625;DHT22;1322;53.256;10.386;2023-02-28T02:21:42;0.80;99.90
2625;DHT22;1322;53.256;10.386;2023-02-28T02:29:47;0.70;99.90
2625;DHT22;1322;53.256;10.386;2023-02-28T02:37:59;0.70;99.90
2625;DHT22;1322;53.256;10.386;2023-02-28T02:40:32;0.80;99.90
2625;DHT22;1322;53.256;10.386;2023-02-28T02:45:32;0.70;99.90
2625;DHT22;1322;53.256;10.386;2023-02-28T02:48:03;0.80;99.90
2625;DHT22;1322;53.256;10.386;2023-02-28T02:50:35;0.80;99.90
2625;DHT22;1322;53.256;10.386;2023-02-28T02:53:04;1.40;99.90
2625;DHT22;1322;53.256;10.386;2023-02-28T02:55:34;0.70;99.90
2625;DHT22;1322;53.256;10.386;2023-02-28T02:58:03;0.70;99.90
2625;DHT22;1322;53.256;10.386;2023-02-28T03:00:42;0.70;99.90
2625;DHT22;1322;53.256;10.386;2023-02-28T03:03:10;0.70;99.90
2625;DHT22;1322;53.256;10.386;2023-02-28T03:05:42;0.70;99.90
2625;DHT22;1322;53.256;10.386;2023-02-28T03:08:10;0.60;99.90
2625;DHT22;1322;53.256;10.386;2023-02-28T03:10:42;0.60;99.90
2625;DHT22;1322;53.256;10.386;2023-02-28T03:16:08;0.60;99.90
2625;DHT22;1322;53.256;10.386;2023-02-28T03:21:33;0.50;99.90
2625;DHT22;1322;53.256;10.386;2023-02-28T03:26:31;0.40;99.90
2625;DHT22;1322;53.256;10.386;2023-02-28T03:31:59;0.40;99.90
2625;DHT22;1322;53.256;10.386;2023-02-28T03:37:01;0.40;99.90
2625;DHT22;1322;53.256;10.386;2023-02-28T03:39:34;0.40;99.90
2625;DHT22;1322;53.256;10.386;2023-02-28T03:42:05;0.40;99.90
2625;DHT22;1322;53.256;10.386;2023-02-28T03:44:36;0.50;99.90
2625;DHT22;1322;53.256;10.386;2023-02-28T03:47:15;0.40;99.90
2625;DHT22;1322;53.256;10.386;2023-02-28T03:50:16;0.40;99.90
2625;DHT22;1322;53.256;10.386;2023-02-28T03:52:49;0.40;99.90
2625;DHT22;1322;53.256;10.386;2023-02-28T03:55:17;0.40;99.90
2625;DHT22;1322;53.256;10.386;2023-02-28T03:58:07;0.30;99.90
2625;DHT22;1322;53.256;10.386;2023-02-28T04:00:38;0.40;99.90
2625;DHT22;1322;53.256;10.386;2023-02-28T04:03:05;0.40;99.90
2625;DHT22;1322;53.256;10.386;2023-02-28T04:05:31;0.30;99.90
2625;DHT22;1322;53.256;10.386;2023-02-28T04:08:05;0.20;99.90
2625;DHT22;1322;53.256;10.386;2023-02-28T04:10:31;0.20;99.90
2625;DHT22;1322;53.256;10.386;2023-02-28T04:12:57;0.20;99.90
2625;DHT22;1322;53.256;10.386;2023-02-28T04:15:22;0.20;99.90
2625;DHT22;1322;53.256;10.386;2023-02-28T04:17:50;0.20;99.90
2625;DHT22;1322;53.256;10.386;2023-02-28T04:20:15;0.20;99.90
2625;DHT22;1322;53.256;10.386;2023-02-28T04:22:41;0.20;99.90
2625;DHT22;1322;53.256;10.386;2023-02-28T04:25:07;0.20;99.90
2625;DHT22;1322;53.256;10.386;2023-02-28T04:27:33;0.20;99.90
2625;DHT22;1322;53.256;10.386;2023-02-28T04:29:59;0.10;99.90
2625;DHT22;1322;53.256;10.386;2023-02-28T04:32:24;0.20;99.90
2625;DHT22;1322;53.256;10.386;2023-02-28T04:34:50;0.10;99.90
2625;DHT22;1322;53.256;10.386;2023-02-28T04:37:16;0.10;99.90
2625;DHT22;1322;53.256;10.386;2023-02-28T04:39:42;0.10;99.90
2625;DHT22;1322;53.256;10.386;2023-02-28T04:42:08;0.00;99.90
2625;DHT22;1322;53.256;10.386;2023-02-28T04:44:34;0.00;99.90
2625;DHT22;1322;53.256;10.386;2023-02-28T04:46:59;0.00;99.90
2625;DHT22;1322;53.256;10.386;2023-02-28T04:49:25;0.00;99.90
2625;DHT22;1322;53.256;10.386;2023-02-28T04:51:51;0.00;99.90
2625;DHT22;1322;53.256;10.386;2023-02-28T04:54:18;0.00;99.90
2625;DHT22;1322;53.256;10.386;2023-02-28T04:56:44;0.00;99.90
2625;DHT22;1322;53.256;10.386;2023-02-28T04:59:09;0.00;99.90
2625;DHT22;1322;53.256;10.386;2023-02-28T05:01:35;0.00;99.90
2625;DHT22;1322;53.256;10.386;2023-02-28T05:04:02;0.00;99.90
2625;DHT22;1322;53.256;10.386;2023-02-28T05:06:31;-0.10;99.90
2625;DHT22;1322;53.256;10.386;2023-02-28T05:08:56;-0.10;99.90
2625;DHT22;1322;53.256;10.386;2023-02-28T05:11:30;-0.10;99.90
2625;DHT22;1322;53.256;10.386;2023-02-28T05:14:04;-0.10;99.90
2625;DHT22;1322;53.256;10.386;2023-02-28T05:16:31;-0.10;99.90
2625;DHT22;1322;53.256;10.386;2023-02-28T05:18:56;-0.10;99.90
2625;DHT22;1322;53.256;10.386;2023-02-28T05:21:30;-0.20;99.90
2625;DHT22;1322;53.256;10.386;2023-02-28T05:23:59;-0.20;99.90
2625;DHT22;1322;53.256;10.386;2023-02-28T05:26:25;-0.20;99.90
2625;DHT22;1322;53.256;10.386;2023-02-28T05:28:52;-0.20;99.90
2625;DHT22;1322;53.256;10.386;2023-02-28T05:31:18;-0.20;99.90
2625;DHT22;1322;53.256;10.386;2023-02-28T05:33:43;-0.20;99.90
2625;DHT22;1322;53.256;10.386;2023-02-28T05:36:09;-0.20;99.90
2625;DHT22;1322;53.256;10.386;2023-02-28T05:38:35;-0.20;99.90
2625;DHT22;1322;53.256;10.386;2023-02-28T05:41:08;-0.20;99.90
2625;DHT22;1322;53.256;10.386;2023-02-28T05:43:34;-0.20;99.90
2625;DHT22;1322;53.256;10.386;2023-02-28T05:46:03;-0.20;99.90
2625;DHT22;1322;53.256;10.386;2023-02-28T05:48:29;-0.20;99.90
2625;DHT22;1322;53.256;10.386;2023-02-28T05:50:54;-0.20;99.90
2625;DHT22;1322;53.256;10.386;2023-02-28T05:53:22;-0.50;99.90
2625;DHT22;1322;53.256;10.386;2023-02-28T05:55:47;-0.20;99.90
2625;DHT22;1322;53.256;10.386;2023-02-28T05:58:13;-0.30;99.90
2625;DHT22;1322;53.256;10.386;2023-02-28T06:00:39;-0.20;99.90
2625;DHT22;1322;53.256;10.386;2023-02-28T06:03:04;-0.30;99.90
2625;DHT22;1322;53.256;10.386;2023-02-28T06:05:30;-0.30;99.90
2625;DHT22;1322;53.256;10.386;2023-02-28T06:07:55;-0.30;99.90
2625;DHT22;1322;53.256;10.386;2023-02-28T06:10:21;-0.30;99.90
2625;DHT22;1322;53.256;10.386;2023-02-28T06:12:47;-0.30;99.90
2625;DHT22;1322;53.256;10.386;2023-02-28T06:15:13;-0.30;99.90
2625;DHT22;1322;53.256;10.386;2023-02-28T06:17:41;-0.30;99.90
2625;DHT22;1322;53.256;10.386;2023-02-28T06:20:07;-0.30;99.90
2625;DHT22;1322;53.256;10.386;2023-02-28T06:22:34;-0.30;99.90
2625;DHT22;1322;53.256;10.386;2023-02-28T06:25:00;-0.20;99.90
2625;DHT22;1322;53.256;10.386;2023-02-28T06:27:26;-0.50;99.90
2625;DHT22;1322;53.256;10.386;2023-02-28T06:29:54;-0.20;99.90
2625;DHT22;1322;53.256;10.386;2023-02-28T06:32:21;-0.10;99.90
2625;DHT22;1322;53.256;10.386;2023-02-28T06:34:47;-0.20;99.90
2625;DHT22;1322;53.256;10.386;2023-02-28T06:37:12;-0.10;99.90
2625;DHT22;1322;53.256;10.386;2023-02-28T06:39:38;-0.10;99.90
2625;DHT22;1322;53.256;10.386;2023-02-28T06:42:04;-0.10;99.90
2625;DHT22;1322;53.256;10.386;2023-02-28T06:44:30;0.00;99.90
2625;DHT22;1322;53.256;10.386;2023-02-28T06:47:01;0.10;99.90
2625;DHT22;1322;53.256;10.386;2023-02-28T06:49:29;0.30;99.90
2625;DHT22;1322;53.256;10.386;2023-02-28T06:51:55;0.40;99.90
2625;DHT22;1322;53.256;10.386;2023-02-28T06:54:20;0.60;99.90
2625;DHT22;1322;53.256;10.386;2023-02-28T06:56:46;0.80;99.90
2625;DHT22;1322;53.256;10.386;2023-02-28T06:59:12;0.90;99.90
2625;DHT22;1322;53.256;10.386;2023-02-28T07:01:38;1.10;99.90
2625;DHT22;1322;53.256;10.386;2023-02-28T07:04:05;1.30;99.90
2625;DHT22;1322;53.256;10.386;2023-02-28T07:06:31;1.40;99.90
2625;DHT22;1322;53.256;10.386;2023-02-28T07:08:57;1.60;99.90
2625;DHT22;1322;53.256;10.386;2023-02-28T07:11:24;1.80;99.90
2625;DHT22;1322;53.256;10.386;2023-02-28T07:13:51;1.90;99.90
2625;DHT22;1322;53.256;10.386;2023-02-28T07:16:17;1.90;99.90
2625;DHT22;1322;53.256;10.386;2023-02-28T07:18:43;2.00;99.90
2625;DHT22;1322;53.256;10.386;2023-02-28T07:21:10;2.10;99.90
2625;DHT22;1322;53.256;10.386;2023-02-28T07:23:36;2.20;99.90
2625;DHT22;1322;53.256;10.386;2023-02-28T07:26:04;2.40;99.90
2625;DHT22;1322;53.256;10.386;2023-02-28T07:28:30;2.40;99.90
2625;DHT22;1322;53.256;10.386;2023-02-28T07:30:55;2.50;99.90
2625;DHT22;1322;53.256;10.386;2023-02-28T07:33:21;2.50;99.90
2625;DHT22;1322;53.256;10.386;2023-02-28T07:35:47;2.60;99.90
2625;DHT22;1322;53.256;10.386;2023-02-28T07:38:12;2.60;99.90
2625;DHT22;1322;53.256;10.386;2023-02-28T07:40:39;2.70;99.90
2625;DHT22;1322;53.256;10.386;2023-02-28T07:43:05;2.70;99.90
2625;DHT22;1322;53.256;10.386;2023-02-28T07:45:30;2.50;99.90
2625;DHT22;1322;53.256;10.386;2023-02-28T07:47:57;2.60;99.90
2625;DHT22;1322;53.256;10.386;2023-02-28T07:50:23;2.60;99.90
2625;DHT22;1322;53.256;10.386;2023-02-28T07:52:49;2.70;99.90
2625;DHT22;1322;53.256;10.386;2023-02-28T07:55:15;2.70;99.90
2625;DHT22;1322;53.256;10.386;2023-02-28T07:57:42;2.70;99.90
2625;DHT22;1322;53.256;10.386;2023-02-28T08:00:09;2.70;99.90
2625;DHT22;1322;53.256;10.386;2023-02-28T08:02:35;2.70;99.90
2625;DHT22;1322;53.256;10.386;2023-02-28T08:05:02;2.80;99.90
2625;DHT22;1322;53.256;10.386;2023-02-28T08:07:27;2.80;99.90
2625;DHT22;1322;53.256;10.386;2023-02-28T08:09:53;2.80;99.90
2625;DHT22;1322;53.256;10.386;2023-02-28T08:12:19;2.80;99.90
2625;DHT22;1322;53.256;10.386;2023-02-28T08:14:44;2.80;99.90
2625;DHT22;1322;53.256;10.386;2023-02-28T08:17:10;2.80;99.90
2625;DHT22;1322;53.256;10.386;2023-02-28T08:19:36;2.90;99.90
2625;DHT22;1322;53.256;10.386;2023-02-28T08:22:02;2.90;99.90
2625;DHT22;1322;53.256;10.386;2023-02-28T08:24:28;2.90;99.90
2625;DHT22;1322;53.256;10.386;2023-02-28T08:26:53;2.90;99.90
2625;DHT22;1322;53.256;10.386;2023-02-28T08:29:19;3.00;99.90
2625;DHT22;1322;53.256;10.386;2023-02-28T08:31:44;3.10;99.90
2625;DHT22;1322;53.256;10.386;2023-02-28T08:34:12;3.20;99.90
2625;DHT22;1322;53.256;10.386;2023-02-28T08:36:38;3.30;99.90
2625;DHT22;1322;53.256;10.386;2023-02-28T08:39:05;3.40;99.90
2625;DHT22;1322;53.256;10.386;2023-02-28T08:41:31;3.50;99.90
2625;DHT22;1322;53.256;10.386;2023-02-28T08:43:57;3.50;99.90
2625;DHT22;1322;53.256;10.386;2023-02-28T08:46:23;3.60;99.90
2625;DHT22;1322;53.256;10.386;2023-02-28T08:48:52;3.70;99.90
2625;DHT22;1322;53.256;10.386;2023-02-28T08:51:20;3.80;99.90
2625;DHT22;1322;53.256;10.386;2023-02-28T08:53:57;3.90;99.90
2625;DHT22;1322;53.256;10.386;2023-02-28T08:56:23;4.10;99.90
2625;DHT22;1322;53.256;10.386;2023-02-28T08:58:49;4.10;99.90
2625;DHT22;1322;53.256;10.386;2023-02-28T09:01:22;4.20;99.90
2625;DHT22;1322;53.256;10.386;2023-02-28T09:03:49;4.30;99.90
2625;DHT22;1322;53.256;10.386;2023-02-28T09:06:17;4.40;99.90
2625;DHT22;1322;53.256;10.386;2023-02-28T09:08:43;4.30;99.90
2625;DHT22;1322;53.256;10.386;2023-02-28T09:11:09;4.50;99.90
2625;DHT22;1322;53.256;10.386;2023-02-28T09:13:35;4.50;99.90
2625;DHT22;1322;53.256;10.386;2023-02-28T09:16:03;4.60;99.90
2625;DHT22;1322;53.256;10.386;2023-02-28T09:18:30;4.70;99.90
2625;DHT22;1322;53.256;10.386;2023-02-28T09:20:56;4.80;99.90
2625;DHT22;1322;53.256;10.386;2023-02-28T09:23:23;4.80;99.90
2625;DHT22;1322;53.256;10.386;2023-02-28T09:25:52;4.80;99.90
2625;DHT22;1322;53.256;10.386;2023-02-28T09:28:18;4.90;99.90
2625;DHT22;1322;53.256;10.386;2023-02-28T09:30:52;5.00;99.90
2625;DHT22;1322;53.256;10.386;2023-02-28T09:33:18;5.10;99.90
2625;DHT22;1322;53.256;10.386;2023-02-28T09:35:47;5.10;99.90
2625;DHT22;1322;53.256;10.386;2023-02-28T09:38:12;5.20;99.90
2625;DHT22;1322;53.256;10.386;2023-02-28T09:40:51;5.20;99.90
2625;DHT22;1322;53.256;10.386;2023-02-28T09:43:18;5.10;99.90
2625;DHT22;1322;53.256;10.386;2023-02-28T09:45:55;5.30;99.90
2625;DHT22;1322;53.256;10.386;2023-02-28T09:48:37;5.30;99.90
2625;DHT22;1322;53.256;10.386;2023-02-28T09:51:14;5.40;99.90
2625;DHT22;1322;53.256;10.386;2023-02-28T09:53:41;5.40;99.90
2625;DHT22;1322;53.256;10.386;2023-02-28T09:56:21;5.40;99.90
2625;DHT22;1322;53.256;10.386;2023-02-28T09:59:46;5.40;99.90
2625;DHT22;1322;53.256;10.386;2023-02-28T10:07:06;5.60;99.90
2625;DHT22;1322;53.256;10.386;2023-02-28T10:09:42;5.70;99.90
2625;DHT22;1322;53.256;10.386;2023-02-28T10:12:11;5.60;99.90
2625;DHT22;1322;53.256;10.386;2023-02-28T10:14:39;5.60;99.90
2625;DHT22;1322;53.256;10.386;2023-02-28T10:24:59;5.60;99.90
2625;DHT22;1322;53.256;10.386;2023-02-28T10:27:31;5.60;99.90
2625;DHT22;1322;53.256;10.386;2023-02-28T10:30:00;5.70;99.90
2625;DHT22;1322;53.256;10.386;2023-02-28T10:32:29;5.80;99.90
2625;DHT22;1322;53.256;10.386;2023-02-28T10:35:19;6.00;99.90
2625;DHT22;1322;53.256;10.386;2023-02-28T10:37:49;5.90;99.90
2625;DHT22;1322;53.256;10.386;2023-02-28T10:45:24;6.00;99.90
2625;DHT22;1322;53.256;10.386;2023-02-28T10:47:58;6.00;99.90
2625;DHT22;1322;53.256;10.386;2023-02-28T10:50:29;6.00;99.90
2625;DHT22;1322;53.256;10.386;2023-02-28T10:52:55;5.90;99.90
2625;DHT22;1322;53.256;10.386;2023-02-28T10:55:30;5.90;99.90
2625;DHT22;1322;53.256;10.386;2023-02-28T10:57:57;6.00;99.90
2625;DHT22;1322;53.256;10.386;2023-02-28T11:00:24;6.10;99.90
2625;DHT22;1322;53.256;10.386;2023-02-28T11:02:52;6.10;99.90
2625;DHT22;1322;53.256;10.386;2023-02-28T11:05:25;6.10;99.90
2625;DHT22;1322;53.256;10.386;2023-02-28T11:07:57;6.00;99.90
2625;DHT22;1322;53.256;10.386;2023-02-28T11:10:27;6.00;99.90
2625;DHT22;1322;53.256;10.386;2023-02-28T11:12:55;6.10;99.90
2625;DHT22;1322;53.256;10.386;2023-02-28T11:15:29;6.00;99.90
2625;DHT22;1322;53.256;10.386;2023-02-28T11:17:59;5.80;99.90
2625;DHT22;1322;53.256;10.386;2023-02-28T11:20:28;5.80;99.90
2625;DHT22;1322;53.256;10.386;2023-02-28T11:22:56;5.70;99.90
2625;DHT22;1322;53.256;10.386;2023-02-28T11:25:32;5.60;99.90
2625;DHT22;1322;53.256;10.386;2023-02-28T11:27:59;5.70;99.90
2625;DHT22;1322;53.256;10.386;2023-02-28T11:30:39;5.80;99.90
2625;DHT22;1322;53.256;10.386;2023-02-28T11:33:28;6.00;99.90
2625;DHT22;1322;53.256;10.386;2023-02-28T11:36:02;6.10;99.90
2625;DHT22;1322;53.256;10.386;2023-02-28T11:38:29;6.10;99.90
2625;DHT22;1322;53.256;10.386;2023-02-28T11:41:11;6.00;99.90
2625;DHT22;1322;53.256;10.386;2023-02-28T11:46:35;6.10;99.90
2625;DHT22;1322;53.256;10.386;2023-02-28T11:49:25;6.10;99.90
2625;DHT22;1322;53.256;10.386;2023-02-28T12:01:08;5.70;99.90
2625;DHT22;1322;53.256;10.386;2023-02-28T12:04:16;5.80;99.90
2625;DHT22;1322;53.256;10.386;2023-02-28T12:12:44;5.80;99.90
2625;DHT22;1322;53.256;10.386;2023-02-28T12:15:32;5.60;99.90
2625;DHT22;1322;53.256;10.386;2023-02-28T12:21:24;5.70;99.90
2625;DHT22;1322;53.256;10.386;2023-02-28T12:26:45;6.10;99.90
2625;DHT22;1322;53.256;10.386;2023-02-28T12:32:02;6.20;99.90
2625;DHT22;1322;53.256;10.386;2023-02-28T12:35:36;6.20;99.90
2625;DHT22;1322;53.256;10.386;2023-02-28T12:40:22;6.10;99.90
2625;DHT22;1322;53.256;10.386;2023-02-28T12:42:54;6.20;99.90
2625;DHT22;1322;53.256;10.386;2023-02-28T12:45:39;6.20;99.90
2625;DHT22;1322;53.256;10.386;2023-02-28T12:48:08;6.10;99.90
2625;DHT22;1322;53.256;10.386;2023-02-28T12:50:36;5.90;99.90
2625;DHT22;1322;53.256;10.386;2023-02-28T12:53:06;5.90;99.90
2625;DHT22;1322;53.256;10.386;2023-02-28T12:55:56;5.90;99.90
2625;DHT22;1322;53.256;10.386;2023-02-28T12:58:48;6.00;99.90
2625;DHT22;1322;53.256;10.386;2023-02-28T13:10:12;6.10;99.90
2625;DHT22;1322;53.256;10.386;2023-02-28T13:12:50;6.00;99.90
2625;DHT22;1322;53.256;10.386;2023-02-28T13:15:25;5.90;99.90
2625;DHT22;1322;53.256;10.386;2023-02-28T13:17:56;6.00;99.90
2625;DHT22;1322;53.256;10.386;2023-02-28T13:20:29;5.90;99.90
2625;DHT22;1322;53.256;10.386;2023-02-28T13:22:57;6.00;99.90
2625;DHT22;1322;53.256;10.386;2023-02-28T13:27:50;6.20;99.90
2625;DHT22;1322;53.256;10.386;2023-02-28T13:35:50;6.50;99.90
2625;DHT22;1322;53.256;10.386;2023-02-28T13:38:34;6.50;99.90
2625;DHT22;1322;53.256;10.386;2023-02-28T13:44:14;6.40;99.90
2625;DHT22;1322;53.256;10.386;2023-02-28T13:52:11;6.40;99.90
2625;DHT22;1322;53.256;10.386;2023-02-28T14:00:23;6.30;99.90
2625;DHT22;1322;53.256;10.386;2023-02-28T14:05:42;6.10;99.90
2625;DHT22;1322;53.256;10.386;2023-02-28T14:08:15;5.90;99.90
2625;DHT22;1322;53.256;10.386;2023-02-28T14:10:48;5.90;99.90
2625;DHT22;1322;53.256;10.386;2023-02-28T14:13:41;5.90;99.90
2625;DHT22;1322;53.256;10.386;2023-02-28T14:16:12;6.10;99.90
2625;DHT22;1322;53.256;10.386;2023-02-28T14:18:51;6.20;99.90
2625;DHT22;1322;53.256;10.386;2023-02-28T14:21:43;6.30;99.90
2625;DHT22;1322;53.256;10.386;2023-02-28T14:38:45;6.40;99.90
2625;DHT22;1322;53.256;10.386;2023-02-28T14:41:28;6.30;99.90
2625;DHT22;1322;53.256;10.386;2023-02-28T14:43:57;6.30;99.90
2625;DHT22;1322;53.256;10.386;2023-02-28T14:46:26;6.20;99.90
2625;DHT22;1322;53.256;10.386;2023-02-28T14:48:52;6.20;99.90
2625;DHT22;1322;53.256;10.386;2023-02-28T14:51:23;6.20;99.90
2625;DHT22;1322;53.256;10.386;2023-02-28T14:53:52;6.30;99.90
2625;DHT22;1322;53.256;10.386;2023-02-28T14:56:35;6.30;99.90
2625;DHT22;1322;53.256;10.386;2023-02-28T14:59:03;6.40;99.90
2625;DHT22;1322;53.256;10.386;2023-02-28T15:01:28;6.40;99.90
2625;DHT22;1322;53.256;10.386;2023-02-28T15:04:00;6.30;99.90
2625;DHT22;1322;53.256;10.386;2023-02-28T15:06:26;6.40;99.90
2625;DHT22;1322;53.256;10.386;2023-02-28T15:09:16;6.40;99.90
2625;DHT22;1322;53.256;10.386;2023-02-28T15:11:46;6.40;99.90
2625;DHT22;1322;53.256;10.386;2023-02-28T15:14:21;6.30;99.90
2625;DHT22;1322;53.256;10.386;2023-02-28T15:16:52;6.20;99.90
2625;DHT22;1322;53.256;10.386;2023-02-28T15:19:23;6.10;99.90
2625;DHT22;1322;53.256;10.386;2023-02-28T15:21:55;6.20;99.90
2625;DHT22;1322;53.256;10.386;2023-02-28T15:24:37;6.20;99.90
2625;DHT22;1322;53.256;10.386;2023-02-28T15:27:07;6.10;99.90
2625;DHT22;1322;53.256;10.386;2023-02-28T15:29:51;6.20;99.90
2625;DHT22;1322;53.256;10.386;2023-02-28T15:32:28;6.20;99.90
2625;DHT22;1322;53.256;10.386;2023-02-28T15:34:55;6.10;99.90
2625;DHT22;1322;53.256;10.386;2023-02-28T15:40:41;6.10;99.90
2625;DHT22;1322;53.256;10.386;2023-02-28T15:43:14;6.10;99.90
2625;DHT22;1322;53.256;10.386;2023-02-28T15:45:58;6.30;99.90
2625;DHT22;1322;53.256;10.386;2023-02-28T15:50:55;6.00;99.90
2625;DHT22;1322;53.256;10.386;2023-02-28T15:53:24;6.00;99.90
2625;DHT22;1322;53.256;10.386;2023-02-28T15:55:57;6.00;99.90
2625;DHT22;1322;53.256;10.386;2023-02-28T15:58:24;6.00;99.90
2625;DHT22;1322;53.256;10.386;2023-02-28T16:01:17;6.00;99.90
2625;DHT22;1322;53.256;10.386;2023-02-28T16:03:47;6.00;99.90
2625;DHT22;1322;53.256;10.386;2023-02-28T16:08:42;5.90;99.90
2625;DHT22;1322;53.256;10.386;2023-02-28T16:11:10;5.90;99.90
2625;DHT22;1322;53.256;10.386;2023-02-28T16:13:36;6.00;99.90
2625;DHT22;1322;53.256;10.386;2023-02-28T16:16:02;5.90;99.90
2625;DHT22;1322;53.256;10.386;2023-02-28T16:18:28;5.90;99.90
2625;DHT22;1322;53.256;10.386;2023-02-28T16:20:54;5.80;99.90
2625;DHT22;1322;53.256;10.386;2023-02-28T16:23:20;5.60;99.90
2625;DHT22;1322;53.256;10.386;2023-02-28T16:25:45;5.50;99.90
2625;DHT22;1322;53.256;10.386;2023-02-28T16:28:25;5.60;99.90
2625;DHT22;1322;53.256;10.386;2023-02-28T16:30:55;5.60;99.90
2625;DHT22;1322;53.256;10.386;2023-02-28T16:33:20;5.60;99.90
2625;DHT22;1322;53.256;10.386;2023-02-28T16:35:46;5.60;99.90
2625;DHT22;1322;53.256;10.386;2023-02-28T16:38:12;5.60;99.90
2625;DHT22;1322;53.256;10.386;2023-02-28T16:40:37;5.40;99.90
2625;DHT22;1322;53.256;10.386;2023-02-28T16:43:29;5.30;99.90
2625;DHT22;1322;53.256;10.386;2023-02-28T16:45:58;5.40;99.90
2625;DHT22;1322;53.256;10.386;2023-02-28T16:48:25;5.40;99.90
2625;DHT22;1322;53.256;10.386;2023-02-28T16:50:51;5.20;99.90
2625;DHT22;1322;53.256;10.386;2023-02-28T16:53:16;5.10;99.90
2625;DHT22;1322;53.256;10.386;2023-02-28T16:55:43;5.10;99.90
2625;DHT22;1322;53.256;10.386;2023-02-28T16:58:14;5.10;99.90
2625;DHT22;1322;53.256;10.386;2023-02-28T17:00:40;5.10;99.90
2625;DHT22;1322;53.256;10.386;2023-02-28T17:03:13;5.10;99.90
2625;DHT22;1322;53.256;10.386;2023-02-28T17:05:44;5.10;99.90
2625;DHT22;1322;53.256;10.386;2023-02-28T17:08:09;5.10;99.90
2625;DHT22;1322;53.256;10.386;2023-02-28T17:10:36;5.10;99.90
2625;DHT22;1322;53.256;10.386;2023-02-28T17:13:01;5.10;99.90
2625;DHT22;1322;53.256;10.386;2023-02-28T17:15:27;5.00;99.90
2625;DHT22;1322;53.256;10.386;2023-02-28T17:17:52;5.00;99.90
2625;DHT22;1322;53.256;10.386;2023-02-28T17:20:20;4.90;99.90
2625;DHT22;1322;53.256;10.386;2023-02-28T17:22:50;4.90;99.90
2625;DHT22;1322;53.256;10.386;2023-02-28T17:25:16;4.90;99.90
2625;DHT22;1322;53.256;10.386;2023-02-28T17:27:42;4.90;99.90
2625;DHT22;1322;53.256;10.386;2023-02-28T17:30:15;4.80;99.90
2625;DHT22;1322;53.256;10.386;2023-02-28T17:32:41;4.80;99.90
2625;DHT22;1322;53.256;10.386;2023-02-28T17:35:07;4.80;99.90
2625;DHT22;1322;53.256;10.386;2023-02-28T17:37:33;4.70;99.90
2625;DHT22;1322;53.256;10.386;2023-02-28T17:39:59;4.80;99.90
2625;DHT22;1322;53.256;10.386;2023-02-28T17:42:24;4.70;99.90
2625;DHT22;1322;53.256;10.386;2023-02-28T17:44:50;4.70;99.90
2625;DHT22;1322;53.256;10.386;2023-02-28T17:47:15;4.70;99.90
2625;DHT22;1322;53.256;10.386;2023-02-28T17:49:41;4.60;99.90
2625;DHT22;1322;53.256;10.386;2023-02-28T17:52:07;4.50;99.90
2625;DHT22;1322;53.256;10.386;2023-02-28T17:54:33;4.50;99.90
2625;DHT22;1322;53.256;10.386;2023-02-28T17:56:58;4.50;99.90
2625;DHT22;1322;53.256;10.386;2023-02-28T17:59:24;4.40;99.90
2625;DHT22;1322;53.256;10.386;2023-02-28T18:01:50;4.40;99.90
2625;DHT22;1322;53.256;10.386;2023-02-28T18:04:15;4.40;99.90
2625;DHT22;1322;53.256;10.386;2023-02-28T18:06:43;4.40;99.90
2625;DHT22;1322;53.256;10.386;2023-02-28T18:09:14;4.40;99.90
2625;DHT22;1322;53.256;10.386;2023-02-28T18:11:40;4.40;99.90
2625;DHT22;1322;53.256;10.386;2023-02-28T18:14:17;4.40;99.90
2625;DHT22;1322;53.256;10.386;2023-02-28T18:16:44;4.30;99.90
2625;DHT22;1322;53.256;10.386;2023-02-28T18:19:10;4.30;99.90
2625;DHT22;1322;53.256;10.386;2023-02-28T18:21:44;4.30;99.90
2625;DHT22;1322;53.256;10.386;2023-02-28T18:24:10;4.30;99.90
2625;DHT22;1322;53.256;10.386;2023-02-28T18:26:37;4.30;99.90
2625;DHT22;1322;53.256;10.386;2023-02-28T18:29:04;4.20;99.90
2625;DHT22;1322;53.256;10.386;2023-02-28T18:31:30;4.20;99.90
2625;DHT22;1322;53.256;10.386;2023-02-28T18:33:59;4.20;99.90
2625;DHT22;1322;53.256;10.386;2023-02-28T18:36:26;4.20;99.90